Hawk Point, Missouri
Current Conditions -  °F | °C
As of 4:35 AM on Thursday 27 Nov 2014 (Local Time) from KFYG Reporting Station
Overcast Overcast  
Wind Chill: 26°   Ceiling: 1400
Heat Index: 32°   Visibility: 9mi
Dew Point: 27°   Wind: 7mph
Humidity: 80%   Direction: 330°NNW
Pressure: 30.39"   Gusts: NA
Location:  38.97°N, 91.13°W
Report Text: KFYG 271035Z AUTO 33006KT 9SM OVC014 00/M03 A3039 RMK AO2
Loading
Personal Weather Stations






























Interactive Weather Map New forecast layout! Learn more

10-Day Weather Forecast

Advertisements
Track Severe Weather on mobile